createdAt,value
2022-11-01T00:00:11.308Z,0
2022-11-01T00:01:11.483Z,0
2022-11-01T00:02:11.938Z,0
2022-11-01T00:03:11.335Z,0
2022-11-01T00:04:11.895Z,0
2022-11-01T00:05:11.306Z,0
2022-11-01T00:06:15.974Z,0
2022-11-01T00:07:11.348Z,0
2022-11-01T00:08:12.107Z,0
2022-11-01T00:09:11.348Z,0
2022-11-01T00:10:11.784Z,0
2022-11-01T00:11:14.434Z,0
2022-11-01T00:12:11.340Z,0
2022-11-01T00:13:11.898Z,0
2022-11-01T00:14:11.333Z,0
2022-11-01T00:15:11.333Z,0
2022-11-01T00:16:11.348Z,0
2022-11-01T00:17:14.457Z,0
2022-11-01T00:18:11.355Z,0
2022-11-01T00:19:11.323Z,0
2022-11-01T00:20:11.407Z,0
2022-11-01T00:21:11.360Z,0
2022-11-01T00:22:14.259Z,0
2022-11-01T00:23:12.275Z,0
2022-11-01T00:24:11.346Z,0
2022-11-01T00:25:11.342Z,0
2022-11-01T00:26:11.371Z,0
2022-11-01T00:27:11.355Z,0
2022-11-01T00:28:14.992Z,0
2022-11-01T00:29:11.436Z,0
2022-11-01T00:30:11.384Z,0
2022-11-01T00:31:17.493Z,0
2022-11-01T00:32:11.435Z,0
2022-11-01T00:33:23.969Z,0
2022-11-01T00:34:11.408Z,0
2022-11-01T00:35:11.373Z,0
2022-11-01T00:36:11.431Z,0
2022-11-01T00:37:11.400Z,0
2022-11-01T00:38:11.809Z,0
2022-11-01T00:39:14.488Z,0
2022-11-01T00:40:11.376Z,0
2022-11-01T00:41:11.430Z,0
2022-11-01T00:42:11.404Z,0
2022-11-01T00:43:11.618Z,0
2022-11-01T00:44:14.441Z,0
2022-11-01T00:45:11.450Z,0
2022-11-01T00:46:11.386Z,0
2022-11-01T00:47:15.335Z,0
2022-11-01T00:48:11.857Z,0
2022-11-01T00:49:11.587Z,0
2022-11-01T00:50:14.527Z,0
2022-11-01T00:51:11.384Z,0
2022-11-01T00:52:11.489Z,0
2022-11-01T00:53:11.398Z,0
2022-11-01T00:54:11.492Z,0
2022-11-01T00:55:14.535Z,0
2022-11-01T00:56:11.417Z,0
2022-11-01T00:57:11.400Z,0
2022-11-01T00:58:12.230Z,0
2022-11-01T00:59:11.618Z,0
2022-11-01T01:00:11.448Z,0
2022-11-01T01:01:14.961Z,0
2022-11-01T01:02:12.629Z,0
2022-11-01T01:03:11.925Z,0
2022-11-01T01:04:11.449Z,0
2022-11-01T01:05:11.416Z,0
2022-11-01T01:06:14.484Z,0
2022-11-01T01:07:11.425Z,0
2022-11-01T01:08:11.504Z,0
2022-11-01T01:09:11.439Z,0
2022-11-01T01:10:11.443Z,0
2022-11-01T01:11:11.439Z,0
2022-11-01T01:12:13.701Z,0
2022-11-01T01:13:12.324Z,0
2022-11-01T01:14:11.448Z,0
2022-11-01T01:15:11.466Z,0
2022-11-01T01:16:11.456Z,0
2022-11-01T01:17:20.487Z,0
2022-11-01T01:18:12.281Z,0
2022-11-01T01:19:11.456Z,0
2022-11-01T01:20:11.445Z,0
2022-11-01T01:21:11.479Z,0
2022-11-01T01:22:11.447Z,0
2022-11-01T01:23:14.611Z,0
2022-11-01T01:24:11.220Z,0
2022-11-01T01:25:12.031Z,0
2022-11-01T01:26:11.478Z,0
2022-11-01T01:27:11.459Z,0
2022-11-01T01:28:16.013Z,0
2022-11-01T01:29:11.475Z,0
2022-11-01T01:30:11.461Z,0
2022-11-01T01:31:20.557Z,0
2022-11-01T01:32:11.461Z,0
2022-11-01T01:34:14.355Z,0
2022-11-01T01:35:11.461Z,0
2022-11-01T01:36:11.461Z,0
2022-11-01T01:37:11.497Z,0
2022-11-01T01:38:12.455Z,0
2022-11-01T01:39:12.797Z,0
2022-11-01T01:40:11.543Z,0
2022-11-01T01:41:11.474Z,0
2022-11-01T01:42:11.507Z,0
2022-11-01T01:43:11.512Z,0
2022-11-01T01:44:12.664Z,0
2022-11-01T01:45:11.483Z,0
2022-11-01T01:46:11.485Z,0
2022-11-01T01:47:11.480Z,0
2022-11-01T01:48:12.232Z,0
2022-11-01T01:49:11.541Z,0
2022-11-01T01:50:14.524Z,0
2022-11-01T01:51:11.480Z,0
2022-11-01T01:52:11.482Z,0
2022-11-01T01:53:12.506Z,0
2022-11-01T01:54:13.833Z,0
2022-11-01T01:55:14.399Z,0
2022-11-01T01:56:11.506Z,0
2022-11-01T01:57:11.503Z,0
2022-11-01T01:58:11.511Z,0
2022-11-01T01:59:11.693Z,0
2022-11-01T02:00:14.247Z,0
2022-11-01T02:01:12.219Z,0
2022-11-01T02:02:12.200Z,0
2022-11-01T02:03:12.182Z,0
2022-11-01T02:04:12.614Z,0
2022-11-01T02:05:11.591Z,0
2022-11-01T02:06:13.526Z,0
2022-11-01T02:07:11.518Z,0
2022-11-01T02:08:12.051Z,0
2022-11-01T02:09:11.544Z,0
2022-11-01T02:10:11.747Z,0
2022-11-01T02:11:11.583Z,0
2022-11-01T02:12:12.075Z,0
2022-11-01T02:13:11.514Z,0
2022-11-01T02:14:11.572Z,0
2022-11-01T02:15:11.557Z,0
2022-11-01T02:16:14.595Z,0
2022-11-01T02:17:20.421Z,0
2022-11-01T02:18:12.088Z,0
2022-11-01T02:19:11.549Z,0
2022-11-01T02:20:11.549Z,0
2022-11-01T02:21:11.569Z,0
2022-11-01T02:22:14.647Z,0
2022-11-01T02:23:12.236Z,0
2022-11-01T02:24:11.576Z,0
2022-11-01T02:25:11.548Z,0
2022-11-01T02:26:11.556Z,0
2022-11-01T02:27:11.622Z,0
2022-11-01T02:28:11.556Z,0
2022-11-01T02:29:14.987Z,0
2022-11-01T02:30:11.556Z,0
2022-11-01T02:31:12.056Z,0
2022-11-01T02:32:11.576Z,0
2022-11-01T02:33:15.117Z,0
2022-11-01T02:34:11.588Z,0
2022-11-01T02:35:11.562Z,0
2022-11-01T02:36:11.569Z,0
2022-11-01T02:37:11.598Z,0
2022-11-01T02:38:14.630Z,0
2022-11-01T02:39:11.963Z,0
2022-11-01T02:40:11.569Z,0
2022-11-01T02:41:11.576Z,0
2022-11-01T02:42:11.587Z,0
2022-11-01T02:43:12.452Z,0
2022-11-01T02:44:14.516Z,0
2022-11-01T02:45:11.595Z,0
2022-11-01T02:46:11.591Z,0
2022-11-01T02:47:11.618Z,0
2022-11-01T02:48:11.586Z,0
2022-11-01T02:49:14.367Z,0
2022-11-01T02:50:11.603Z,0
2022-11-01T02:51:11.587Z,0
2022-11-01T02:52:11.599Z,0
2022-11-01T02:53:12.005Z,0
2022-11-01T02:54:11.590Z,0
2022-11-01T02:55:14.759Z,0
2022-11-01T02:56:11.599Z,0
2022-11-01T02:57:11.598Z,0
2022-11-01T02:58:12.500Z,0
2022-11-01T02:59:11.689Z,0
2022-11-01T03:00:14.735Z,0
2022-11-01T03:01:12.257Z,0
2022-11-01T03:02:12.104Z,0
2022-11-01T03:03:11.601Z,0
2022-11-01T03:04:11.781Z,0
2022-11-01T03:05:11.649Z,0
2022-11-01T03:06:14.690Z,0
2022-11-01T03:07:11.611Z,0
2022-11-01T03:08:12.454Z,0
2022-11-01T03:09:11.658Z,0
2022-11-01T03:10:11.657Z,0
2022-11-01T03:11:14.711Z,0
2022-11-01T03:12:11.824Z,0
2022-11-01T03:13:12.432Z,0
2022-11-01T03:14:11.625Z,0
2022-11-01T03:15:11.773Z,0
2022-11-01T03:16:11.655Z,0
2022-11-01T03:17:14.660Z,0
2022-11-01T03:18:12.081Z,0
2022-11-01T03:19:14.520Z,0
2022-11-01T03:20:11.667Z,0
2022-11-01T03:21:11.679Z,0
2022-11-01T03:22:14.664Z,0
2022-11-01T03:23:12.473Z,0
2022-11-01T03:24:11.660Z,0
2022-11-01T03:25:11.681Z,0
2022-11-01T03:26:11.761Z,0
2022-11-01T03:27:11.761Z,0
2022-11-01T03:28:14.542Z,0
2022-11-01T03:29:11.659Z,0
2022-11-01T03:30:12.090Z,0
2022-11-01T03:31:12.250Z,0
2022-11-01T03:32:11.968Z,0
2022-11-01T03:33:13.392Z,0
2022-11-01T03:34:11.662Z,0
2022-11-01T03:35:11.706Z,0
2022-11-01T03:36:19.059Z,0
2022-11-01T03:37:12.039Z,0
2022-11-01T03:38:11.675Z,0
2022-11-01T03:39:14.726Z,0
2022-11-01T03:40:11.690Z,0
2022-11-01T03:41:11.702Z,0
2022-11-01T03:42:11.694Z,0
2022-11-01T03:43:12.346Z,0
2022-11-01T03:44:14.810Z,0
2022-11-01T03:45:11.855Z,0
2022-11-01T03:46:11.686Z,0
2022-11-01T03:47:11.776Z,0
2022-11-01T03:48:12.582Z,0
2022-11-01T03:49:11.913Z,0
2022-11-01T03:50:14.463Z,0
2022-11-01T03:51:11.700Z,0
2022-11-01T03:52:11.688Z,0
2022-11-01T03:53:11.713Z,0
2022-11-01T03:54:11.774Z,0
2022-11-01T03:55:15.686Z,0
2022-11-01T03:56:11.999Z,0
2022-11-01T03:57:12.042Z,0
2022-11-01T03:58:12.643Z,0
2022-11-01T03:59:11.713Z,0
2022-11-01T04:00:11.741Z,0
2022-11-01T04:01:15.237Z,0
2022-11-01T04:02:12.443Z,0
2022-11-01T04:03:12.881Z,0
2022-11-01T04:04:11.742Z,0
2022-11-01T04:05:11.732Z,0
2022-11-01T04:06:14.751Z,0
2022-11-01T04:07:12.791Z,0
2022-11-01T04:08:11.739Z,0
2022-11-01T04:09:11.759Z,0
2022-11-01T04:10:11.763Z,0
2022-11-01T04:11:14.757Z,0
2022-11-01T04:12:11.721Z,0
2022-11-01T04:13:13.788Z,0
2022-11-01T04:14:11.735Z,0
2022-11-01T04:15:11.772Z,0
2022-11-01T04:16:11.750Z,0
2022-11-01T04:17:14.988Z,0
2022-11-01T04:18:11.736Z,0
2022-11-01T04:19:11.807Z,0
2022-11-01T04:20:11.843Z,0
2022-11-01T04:21:11.931Z,0
2022-11-01T04:22:14.510Z,0
2022-11-01T04:23:12.771Z,0
2022-11-01T04:24:11.746Z,0
2022-11-01T04:25:11.792Z,0
2022-11-01T04:26:11.863Z,0
2022-11-01T04:27:11.767Z,0
2022-11-01T04:28:11.744Z,0
2022-11-01T04:29:11.770Z,0
2022-11-01T04:30:11.770Z,0
2022-11-01T04:31:11.755Z,0
2022-11-01T04:32:11.753Z,0
2022-11-01T04:33:15.474Z,0
2022-11-01T04:34:12.150Z,0
2022-11-01T04:35:12.066Z,0
2022-11-01T04:36:11.796Z,0
2022-11-01T04:37:12.077Z,0
2022-11-01T04:38:13.068Z,0
2022-11-01T04:39:14.796Z,0
2022-11-01T04:40:11.787Z,0
2022-11-01T04:41:11.998Z,0
2022-11-01T04:42:11.767Z,0
2022-11-01T04:43:11.780Z,0
2022-11-01T04:44:14.568Z,0
2022-11-01T04:45:11.796Z,0
2022-11-01T04:46:11.787Z,0
2022-11-01T04:47:11.782Z,0
2022-11-01T04:48:12.812Z,0
2022-11-01T04:49:14.774Z,0
2022-11-01T04:50:11.815Z,0
2022-11-01T04:51:11.862Z,0
2022-11-01T04:52:11.810Z,0
2022-11-01T04:53:12.663Z,0
2022-11-01T04:54:11.800Z,0
2022-11-01T04:55:11.845Z,0
2022-11-01T04:56:11.798Z,0
2022-11-01T04:57:11.793Z,0
2022-11-01T04:58:17.804Z,0
2022-11-01T04:59:11.787Z,0
2022-11-01T05:00:15.251Z,0
2022-11-01T05:01:12.562Z,0
2022-11-01T05:02:12.393Z,0
2022-11-01T05:03:13.198Z,0
2022-11-01T05:04:11.809Z,0
2022-11-01T05:05:15.006Z,0
2022-11-01T05:06:15.267Z,0
2022-11-01T05:07:11.812Z,0
2022-11-01T05:08:12.196Z,0
2022-11-01T05:09:11.824Z,0
2022-11-01T05:10:11.874Z,0
2022-11-01T05:11:14.696Z,0
2022-11-01T05:12:11.811Z,0
2022-11-01T05:13:12.810Z,0
2022-11-01T05:14:11.832Z,0
2022-11-01T05:15:11.835Z,0
2022-11-01T05:16:30.305Z,0
2022-11-01T05:17:11.828Z,0
2022-11-01T05:18:12.280Z,0
2022-11-01T05:19:11.838Z,0
2022-11-01T05:20:12.285Z,0
2022-11-01T05:21:11.883Z,0
2022-11-01T05:22:14.706Z,0
2022-11-01T05:23:12.903Z,0
2022-11-01T05:24:11.866Z,0
2022-11-01T05:25:11.859Z,0
2022-11-01T05:26:12.199Z,0
2022-11-01T05:27:14.597Z,0
2022-11-01T05:28:12.387Z,0
2022-11-01T05:29:38.295Z,0
2022-11-01T05:30:11.873Z,0
2022-11-01T05:31:11.934Z,0
2022-11-01T05:32:11.966Z,0
2022-11-01T05:33:14.924Z,0
2022-11-01T05:34:11.856Z,0
2022-11-01T05:35:11.852Z,0
2022-11-01T05:36:11.908Z,0
2022-11-01T05:37:11.876Z,0
2022-11-01T05:38:20.764Z,0
2022-11-01T05:39:11.866Z,0
2022-11-01T05:40:11.935Z,0
2022-11-01T05:42:12.348Z,0
2022-11-01T05:43:12.820Z,0
2022-11-01T05:44:15.007Z,0
2022-11-01T05:45:11.864Z,0
2022-11-01T05:46:11.921Z,0
2022-11-01T05:47:17.255Z,0
2022-11-01T05:48:11.930Z,0
2022-11-01T05:49:12.982Z,0
2022-11-01T05:50:11.891Z,0
2022-11-01T05:51:11.907Z,0
2022-11-01T05:52:11.881Z,0
2022-11-01T05:53:12.840Z,0
2022-11-01T05:54:11.970Z,0
2022-11-01T05:55:14.940Z,0
2022-11-01T05:56:11.927Z,0
2022-11-01T05:57:11.900Z,0
2022-11-01T05:58:11.921Z,0
2022-11-01T05:59:11.905Z,0
2022-11-01T06:00:14.973Z,0
2022-11-01T06:01:12.096Z,0
2022-11-01T06:02:12.514Z,0
2022-11-01T06:03:13.084Z,0
2022-11-01T06:04:12.125Z,0
2022-11-01T06:05:12.547Z,0
2022-11-01T06:06:14.963Z,0
2022-11-01T06:07:11.899Z,0
2022-11-01T06:08:11.975Z,0
2022-11-01T06:09:12.089Z,0
2022-11-01T06:10:11.979Z,0
2022-11-01T06:11:15.561Z,0
2022-11-01T06:12:11.945Z,0
2022-11-01T06:13:12.868Z,0
2022-11-01T06:14:12.021Z,0
2022-11-01T06:15:11.957Z,0
2022-11-01T06:16:11.941Z,0
2022-11-01T06:17:15.066Z,0
2022-11-01T06:18:13.011Z,0
2022-11-01T06:19:11.987Z,0
2022-11-01T06:20:11.977Z,0
2022-11-01T06:21:11.959Z,0
2022-11-01T06:22:14.704Z,0
2022-11-01T06:23:12.034Z,0
2022-11-01T06:24:11.930Z,0
2022-11-01T06:25:11.937Z,0
2022-11-01T06:26:12.040Z,0
2022-11-01T06:27:17.475Z,0
2022-11-01T06:28:15.279Z,0
2022-11-01T06:29:12.142Z,0
2022-11-01T06:30:11.929Z,0
2022-11-01T06:31:12.065Z,0
2022-11-01T06:32:11.946Z,0
2022-11-01T06:33:15.700Z,0
2022-11-01T06:34:11.958Z,0
2022-11-01T06:35:11.948Z,0
2022-11-01T06:36:12.023Z,0
2022-11-01T06:37:11.952Z,0
2022-11-01T06:38:12.118Z,0
2022-11-01T06:39:14.601Z,0
2022-11-01T06:40:12.003Z,0
2022-11-01T06:41:11.994Z,0
2022-11-01T06:42:12.111Z,0
2022-11-01T06:43:15.029Z,0
2022-11-01T06:44:15.056Z,0
2022-11-01T06:45:11.979Z,0
2022-11-01T06:46:12.006Z,0
2022-11-01T06:47:11.990Z,0
2022-11-01T06:48:12.948Z,0
2022-11-01T06:49:21.886Z,0
2022-11-01T06:50:11.986Z,0
2022-11-01T06:51:12.031Z,0
2022-11-01T06:52:12.034Z,0
2022-11-01T06:53:12.101Z,0
2022-11-01T06:54:11.988Z,0
2022-11-01T06:55:11.994Z,0
2022-11-01T06:56:12.035Z,0
2022-11-01T06:57:12.004Z,0
2022-11-01T06:58:13.007Z,0
2022-11-01T06:59:12.053Z,0
2022-11-01T07:00:15.178Z,0
2022-11-01T07:01:12.687Z,0
2022-11-01T07:02:25.720Z,0
2022-11-01T07:03:12.001Z,0
2022-11-01T07:05:12.018Z,0
2022-11-01T07:06:12.041Z,0
2022-11-01T07:07:11.832Z,0
2022-11-01T07:08:12.981Z,0
2022-11-01T07:09:12.003Z,0
2022-11-01T07:10:11.996Z,0
2022-11-01T07:11:15.047Z,0
2022-11-01T07:12:12.034Z,0
2022-11-01T07:13:12.007Z,0
2022-11-01T07:14:12.099Z,0
2022-11-01T07:15:11.868Z,0
2022-11-01T07:16:15.316Z,0
2022-11-01T07:17:12.030Z,0
2022-11-01T07:18:13.164Z,0
2022-11-01T07:19:12.018Z,0
2022-11-01T07:20:12.067Z,0
2022-11-01T07:21:12.064Z,0
2022-11-01T07:22:15.162Z,0
2022-11-01T07:23:13.002Z,0
2022-11-01T07:24:12.060Z,0
2022-11-01T07:25:11.866Z,0
2022-11-01T07:26:12.104Z,5
2022-11-01T07:27:20.521Z,5
2022-11-01T07:28:12.045Z,5
2022-11-01T07:29:12.039Z,5
2022-11-01T07:30:12.104Z,5
2022-11-01T07:31:12.084Z,5
2022-11-01T07:32:13.918Z,10
2022-11-01T07:33:16.077Z,10
2022-11-01T07:34:12.051Z,10
2022-11-01T07:35:12.048Z,10
2022-11-01T07:36:12.088Z,10
2022-11-01T07:37:12.347Z,10
2022-11-01T07:38:21.420Z,5
2022-11-01T07:39:12.098Z,5
2022-11-01T07:40:12.068Z,5
2022-11-01T07:41:12.072Z,5
2022-11-01T07:42:12.060Z,5
2022-11-01T07:43:15.679Z,5
2022-11-01T07:44:12.375Z,5
2022-11-01T07:45:17.799Z,5
2022-11-01T07:46:12.120Z,5
2022-11-01T07:47:12.156Z,5
2022-11-01T07:48:13.002Z,10
2022-11-01T07:49:14.856Z,10
2022-11-01T07:53:34.699Z,10
2022-11-01T07:54:15.406Z,10
2022-11-01T07:55:12.502Z,10
2022-11-01T07:59:15.930Z,10
2022-11-01T08:00:15.130Z,15
2022-11-01T08:01:12.629Z,20
2022-11-01T08:02:16.822Z,15
2022-11-01T08:03:13.151Z,15
2022-11-01T08:04:12.149Z,10
2022-11-01T08:05:14.976Z,10
2022-11-01T08:06:17.574Z,10
2022-11-01T08:07:13.014Z,10
2022-11-01T08:08:12.918Z,15
2022-11-01T08:09:12.137Z,15
2022-11-01T08:10:12.097Z,15
2022-11-01T08:11:15.165Z,15
2022-11-01T08:12:11.784Z,15
2022-11-01T08:13:12.122Z,15
2022-11-01T08:14:18.958Z,15
2022-11-01T08:15:12.140Z,15
2022-11-01T08:16:13.217Z,15
2022-11-01T08:17:12.180Z,15
2022-11-01T08:18:13.304Z,15
2022-11-01T08:19:12.137Z,15
2022-11-01T08:20:12.216Z,15
2022-11-01T08:21:12.120Z,15
2022-11-01T08:22:15.021Z,15
2022-11-01T08:23:13.170Z,15
2022-11-01T08:24:12.165Z,15
2022-11-01T08:25:12.158Z,15
2022-11-01T08:26:12.134Z,15
2022-11-01T08:27:14.949Z,15
2022-11-01T08:28:12.208Z,15
2022-11-01T08:29:12.391Z,10
2022-11-01T08:30:12.140Z,10
2022-11-01T08:31:12.171Z,10
2022-11-01T08:32:12.138Z,10
2022-11-01T08:33:16.296Z,10
2022-11-01T08:34:18.219Z,10
2022-11-01T08:35:12.152Z,10
2022-11-01T08:36:12.278Z,10
2022-11-01T08:37:12.139Z,10
2022-11-01T08:38:14.991Z,10
2022-11-01T08:39:12.344Z,10
2022-11-01T08:40:12.232Z,15
2022-11-01T08:41:12.156Z,15
2022-11-01T08:42:12.152Z,10
2022-11-01T08:43:13.203Z,10
2022-11-01T08:44:13.263Z,10
2022-11-01T08:45:12.169Z,10
2022-11-01T08:46:12.171Z,10
2022-11-01T08:47:12.195Z,10
2022-11-01T08:48:12.233Z,15
2022-11-01T08:49:15.352Z,15
2022-11-01T08:50:17.772Z,15
2022-11-01T08:51:12.277Z,15
2022-11-01T08:52:12.171Z,15
2022-11-01T08:53:12.558Z,20
2022-11-01T08:54:12.185Z,15
2022-11-01T08:55:14.965Z,15
2022-11-01T08:56:12.191Z,15
2022-11-01T08:57:12.182Z,15
2022-11-01T08:58:13.106Z,15
2022-11-01T08:59:12.550Z,15
2022-11-01T09:00:14.968Z,15
2022-11-01T09:01:12.788Z,15
2022-11-01T09:02:13.118Z,15
2022-11-01T09:03:12.228Z,15
2022-11-01T09:04:12.215Z,15
2022-11-01T09:05:12.358Z,15
2022-11-01T09:06:12.224Z,20
2022-11-01T09:07:12.198Z,20
2022-11-01T09:08:13.295Z,20
2022-11-01T09:09:12.191Z,15
2022-11-01T09:10:12.233Z,20
2022-11-01T09:11:15.128Z,20
2022-11-01T09:12:20.654Z,20
2022-11-01T09:13:13.183Z,30
2022-11-01T09:14:12.225Z,30
2022-11-01T09:15:12.275Z,35
2022-11-01T09:16:15.755Z,30
2022-11-01T09:17:12.245Z,30
2022-11-01T09:18:12.236Z,35
2022-11-01T09:19:15.021Z,35
2022-11-01T09:20:12.314Z,40
2022-11-01T09:21:12.469Z,40
2022-11-01T09:22:12.326Z,40
2022-11-01T09:23:13.192Z,40
2022-11-01T09:24:12.218Z,40
2022-11-01T09:25:12.269Z,40
2022-11-01T09:26:12.230Z,35
2022-11-01T09:27:15.241Z,30
2022-11-01T09:28:12.249Z,30
2022-11-01T09:29:12.243Z,30
2022-11-01T09:30:12.297Z,25
2022-11-01T09:31:29.611Z,25
2022-11-01T09:32:12.246Z,25
2022-11-01T09:33:12.813Z,30
2022-11-01T09:34:12.266Z,25
2022-11-01T09:35:13.344Z,20
2022-11-01T09:36:12.347Z,20
2022-11-01T09:37:12.613Z,20
2022-11-01T09:38:15.209Z,20
2022-11-01T09:39:12.272Z,20
2022-11-01T09:40:12.274Z,20
2022-11-01T09:41:12.276Z,20
2022-11-01T09:42:12.268Z,15
2022-11-01T09:43:18.707Z,15
2022-11-01T09:44:12.292Z,15
2022-11-01T09:45:13.339Z,15
2022-11-01T09:46:12.409Z,15
2022-11-01T09:47:12.285Z,15
2022-11-01T09:48:13.006Z,15
2022-11-01T09:49:15.167Z,15
2022-11-01T09:50:12.304Z,20
2022-11-01T09:51:12.149Z,20
2022-11-01T09:52:12.268Z,20
2022-11-01T09:53:12.358Z,20
2022-11-01T09:54:15.229Z,20
2022-11-01T09:55:12.340Z,20
2022-11-01T09:56:12.296Z,20
2022-11-01T09:57:12.295Z,20
2022-11-01T09:58:15.914Z,20
2022-11-01T09:59:13.413Z,20
2022-11-01T10:00:12.332Z,30
2022-11-01T10:01:12.959Z,35
2022-11-01T10:02:19.030Z,20
2022-11-01T10:03:12.545Z,35
2022-11-01T10:04:21.493Z,40
2022-11-01T10:05:21.400Z,25
2022-11-01T10:06:12.357Z,20
2022-11-01T10:07:12.358Z,20
2022-11-01T10:08:13.834Z,20
2022-11-01T10:09:12.358Z,15
2022-11-01T10:10:14.042Z,15
2022-11-01T10:11:13.227Z,15
2022-11-01T10:12:12.354Z,15
2022-11-01T10:13:12.353Z,15
2022-11-01T10:14:12.316Z,15
2022-11-01T10:15:12.727Z,15
2022-11-01T10:16:15.350Z,15
2022-11-01T10:17:12.330Z,15
2022-11-01T10:18:13.336Z,15
2022-11-01T10:19:12.321Z,15
2022-11-01T10:20:12.665Z,15
2022-11-01T10:21:15.297Z,15
2022-11-01T10:22:12.374Z,15
2022-11-01T10:23:13.229Z,15
2022-11-01T10:24:12.412Z,15
2022-11-01T10:25:12.499Z,15
2022-11-01T10:26:12.404Z,15
2022-11-01T10:27:15.187Z,15
2022-11-01T10:28:12.355Z,15
2022-11-01T10:29:12.359Z,15
2022-11-01T10:30:13.416Z,15
2022-11-01T10:31:12.370Z,15
2022-11-01T10:32:15.126Z,15
2022-11-01T10:33:13.075Z,15
2022-11-01T10:34:12.390Z,15
2022-11-01T10:35:12.548Z,15
2022-11-01T10:36:12.673Z,15
2022-11-01T10:37:12.412Z,15
2022-11-01T10:39:56.051Z,15
2022-11-01T10:40:17.023Z,15
2022-11-01T10:41:07.043Z,15
2022-11-01T10:42:07.060Z,15
2022-11-01T10:43:10.175Z,15
2022-11-01T10:44:07.053Z,20
2022-11-01T10:45:07.038Z,20
2022-11-01T10:46:07.078Z,25
2022-11-01T10:47:07.066Z,25
2022-11-01T10:48:10.358Z,25
2022-11-01T10:49:07.054Z,25
2022-11-01T10:50:15.185Z,40
2022-11-01T10:51:07.096Z,40
2022-11-01T10:52:07.112Z,30
2022-11-01T10:53:07.364Z,25
2022-11-01T10:54:10.158Z,30
2022-11-01T10:55:07.071Z,25
2022-11-01T10:56:07.192Z,30
2022-11-01T10:57:07.106Z,35
2022-11-01T10:58:08.607Z,40
2022-11-01T10:59:10.206Z,35
2022-11-01T11:00:07.086Z,40
2022-11-01T11:01:07.903Z,40
2022-11-01T11:02:08.199Z,35
2022-11-01T11:03:07.287Z,35
2022-11-01T11:04:07.088Z,35
2022-11-01T11:05:10.108Z,35
2022-11-01T11:06:07.131Z,35
2022-11-01T11:07:08.167Z,35
2022-11-01T11:08:08.538Z,35
2022-11-01T11:09:07.118Z,35
2022-11-01T11:10:10.819Z,30
2022-11-01T11:11:07.151Z,30
2022-11-01T11:12:07.223Z,30
2022-11-01T11:13:08.955Z,20
2022-11-01T11:14:07.175Z,25
2022-11-01T11:15:07.149Z,25
2022-11-01T11:16:10.136Z,25
2022-11-01T11:17:07.166Z,25
2022-11-01T11:18:07.143Z,25
2022-11-01T11:19:07.128Z,25
2022-11-01T11:20:07.127Z,25
2022-11-01T11:21:11.189Z,25
2022-11-01T11:22:07.143Z,25
2022-11-01T11:23:08.774Z,25
2022-11-01T11:24:07.181Z,25
2022-11-01T11:25:07.162Z,20
2022-11-01T11:26:07.452Z,20
2022-11-01T11:27:10.248Z,20
2022-11-01T11:28:08.892Z,20
2022-11-01T11:29:07.150Z,25
2022-11-01T11:30:07.337Z,25
2022-11-01T11:31:07.159Z,25
2022-11-01T11:32:10.245Z,25
2022-11-01T11:33:07.201Z,20
2022-11-01T11:34:07.174Z,20
2022-11-01T11:35:07.197Z,20
2022-11-01T11:36:07.163Z,20
2022-11-01T11:37:07.207Z,20
2022-11-01T11:38:12.839Z,20
2022-11-01T11:39:07.315Z,20
2022-11-01T11:40:07.153Z,20
2022-11-01T11:41:07.195Z,20
2022-11-01T11:42:07.288Z,20
2022-11-01T11:44:07.244Z,20
2022-11-01T11:45:07.483Z,15
2022-11-01T11:46:07.222Z,15
2022-11-01T11:47:07.190Z,15
2022-11-01T11:48:11.356Z,15
2022-11-01T11:49:07.192Z,15
2022-11-01T11:50:07.261Z,15
2022-11-01T11:51:07.217Z,15
2022-11-01T11:52:07.199Z,15
2022-11-01T11:53:07.154Z,15
2022-11-01T11:54:07.171Z,15
2022-11-01T11:55:07.321Z,20
2022-11-01T11:56:07.198Z,20
2022-11-01T11:57:07.169Z,20
2022-11-01T11:58:08.380Z,25
2022-11-01T11:59:15.766Z,25
2022-11-01T12:00:07.303Z,20
2022-11-01T12:01:11.017Z,20
2022-11-01T12:02:10.815Z,25
2022-11-01T12:03:09.906Z,25
2022-11-01T12:04:07.206Z,25
2022-11-01T12:05:10.202Z,25
2022-11-01T12:06:07.217Z,25
2022-11-01T12:07:07.226Z,30
2022-11-01T12:08:07.210Z,30
2022-11-01T12:09:12.215Z,25
2022-11-01T12:10:16.377Z,30
2022-11-01T12:11:07.694Z,25
2022-11-01T12:12:07.216Z,25
2022-11-01T12:13:09.732Z,20
2022-11-01T12:14:07.280Z,15
2022-11-01T12:15:07.313Z,15
2022-11-01T12:16:07.675Z,10
2022-11-01T12:17:07.290Z,10
2022-11-01T12:18:11.418Z,10
2022-11-01T12:19:07.213Z,10
2022-11-01T12:20:07.220Z,10
2022-11-01T12:21:20.470Z,10
2022-11-01T12:22:07.285Z,10
2022-11-01T12:23:18.841Z,5
2022-11-01T12:24:07.248Z,5
2022-11-01T12:25:07.231Z,5
2022-11-01T12:26:15.583Z,5
2022-11-01T12:27:07.252Z,5
2022-11-01T12:28:08.977Z,5
2022-11-01T12:29:07.238Z,5
2022-11-01T12:30:08.468Z,5
2022-11-01T12:31:10.166Z,5
2022-11-01T12:32:07.284Z,10
2022-11-01T12:33:07.743Z,10
2022-11-01T12:34:07.349Z,10
2022-11-01T12:35:07.267Z,10
2022-11-01T12:36:07.294Z,10
2022-11-01T12:37:09.576Z,10
2022-11-01T12:38:08.795Z,15
2022-11-01T12:39:07.268Z,15
2022-11-01T12:40:07.314Z,15
2022-11-01T12:41:12.346Z,20
2022-11-01T12:42:10.436Z,20
2022-11-01T12:43:07.844Z,20
2022-11-01T12:44:07.480Z,20
2022-11-01T12:45:07.485Z,20
2022-11-01T12:46:07.826Z,20
2022-11-01T12:47:07.555Z,20
2022-11-01T12:48:11.675Z,20
2022-11-01T12:49:07.336Z,20
2022-11-01T12:50:07.263Z,20
2022-11-01T12:51:07.284Z,20
2022-11-01T13:31:49.490Z,35
2022-11-01T13:32:59.253Z,40
2022-11-01T13:34:01.861Z,30
2022-11-01T13:34:59.014Z,40
2022-11-01T13:36:05.007Z,25
2022-11-01T13:36:59.146Z,30
2022-11-01T13:38:00.346Z,35
2022-11-01T13:38:58.990Z,30
2022-11-01T13:39:59.116Z,25
2022-11-01T13:40:59.427Z,25
2022-11-01T13:42:01.666Z,20
2022-11-01T13:42:58.925Z,20
2022-11-01T13:44:00.273Z,20
2022-11-01T13:44:58.892Z,15
2022-11-01T13:45:58.899Z,10
2022-11-01T13:47:02.293Z,10
2022-11-01T13:47:58.924Z,10
2022-11-01T13:48:58.904Z,10
2022-11-01T13:50:06.366Z,5
2022-11-01T13:50:58.907Z,10
2022-11-01T13:51:58.930Z,10
2022-11-01T13:53:04.832Z,5
2022-11-01T13:54:00.520Z,5
2022-11-01T13:54:59.110Z,5
2022-11-01T13:55:59.173Z,5
2022-11-01T13:57:02.059Z,5
2022-11-01T13:57:59.270Z,5
2022-11-01T13:58:58.966Z,5
2022-11-01T14:00:02.768Z,5
2022-11-01T14:01:02.785Z,5
2022-11-01T14:02:01.563Z,5
2022-11-01T14:03:02.148Z,5
2022-11-01T14:04:01.964Z,5
2022-11-01T14:04:58.951Z,5
2022-11-01T14:05:58.949Z,5
2022-11-01T14:07:07.303Z,5
2022-11-01T14:07:59.131Z,5
2022-11-01T14:09:11.226Z,10
2022-11-01T14:10:00.192Z,10
2022-11-01T14:11:07.769Z,15
2022-11-01T14:12:01.982Z,15
2022-11-01T14:13:01.111Z,15
2022-11-01T14:13:58.990Z,10
2022-11-01T14:15:01.768Z,10
2022-11-01T14:16:05.993Z,10
2022-11-01T14:16:58.962Z,10
2022-11-01T14:18:10.825Z,10
2022-11-01T14:18:59.396Z,10
2022-11-01T14:20:04.849Z,15
2022-11-01T14:21:01.982Z,20
2022-11-01T14:22:01.184Z,20
2022-11-01T14:22:59.821Z,15
2022-11-01T14:24:00.001Z,15
2022-11-01T14:25:04.713Z,15
2022-11-01T14:26:08.642Z,20
2022-11-01T14:26:59.008Z,20
2022-11-01T14:28:01.304Z,10
2022-11-01T14:28:58.977Z,10
2022-11-01T14:29:59.015Z,10
2022-11-01T14:31:02.242Z,10
2022-11-01T14:31:59.079Z,10
2022-11-01T14:33:02.590Z,10
2022-11-01T14:34:16.327Z,10
2022-11-01T14:35:08.679Z,10
2022-11-01T14:36:02.993Z,10
2022-11-01T14:37:02.198Z,10
2022-11-01T14:37:59.041Z,10
2022-11-01T14:38:59.057Z,10
2022-11-01T14:39:59.260Z,10
2022-11-01T14:40:58.840Z,10
2022-11-01T14:42:05.055Z,10
2022-11-01T14:42:59.080Z,10
2022-11-01T14:44:12.275Z,10
2022-11-01T14:45:00.722Z,10
2022-11-01T14:45:59.049Z,10
2022-11-01T14:46:59.077Z,5
2022-11-01T14:47:59.440Z,5
2022-11-01T14:48:59.116Z,10
2022-11-01T14:49:59.167Z,5
2022-11-01T14:51:02.025Z,5
2022-11-01T14:52:00.457Z,10
2022-11-01T14:52:59.069Z,5
2022-11-01T14:54:02.136Z,5
2022-11-01T14:54:59.064Z,5
2022-11-01T14:55:59.164Z,5
2022-11-01T14:56:59.188Z,5
2022-11-01T14:58:02.101Z,5
2022-11-01T14:59:06.873Z,5
2022-11-01T14:59:59.046Z,5
2022-11-01T15:00:59.666Z,5
2022-11-01T15:02:07.559Z,5
2022-11-01T15:04:00.271Z,5
2022-11-01T15:05:02.238Z,5
2022-11-01T15:05:59.248Z,5
2022-11-01T15:06:59.053Z,5
2022-11-01T15:08:00.262Z,5
2022-11-01T15:09:02.098Z,5
2022-11-01T15:09:59.428Z,5
2022-11-01T15:10:59.066Z,5
2022-11-01T15:11:59.037Z,5
2022-11-01T15:12:59.555Z,5
2022-11-01T15:14:01.756Z,5
2022-11-01T15:14:58.907Z,5
2022-11-01T15:16:02.766Z,5
2022-11-01T15:16:59.064Z,0
2022-11-01T15:17:59.117Z,0
2022-11-01T15:19:02.184Z,0
2022-11-01T15:20:08.345Z,0
2022-11-01T15:21:02.321Z,0
2022-11-01T15:21:59.244Z,0
2022-11-01T15:22:59.194Z,0
2022-11-01T15:24:05.645Z,0
2022-11-01T15:25:02.106Z,0
2022-11-01T15:25:59.181Z,0